Impacts TAF Board
For situational awareness. Not to be used for flight planning purposes.
IDs:

KBHM - Birmingham Intl, AL, US

Issued at 1205 UTC 16 Aug 2022
Updated at 1418 UTC 16 Aug 2022
Potential Impact None Slight Moderate High
Time<<17/03Z 17/04Z 17/05Z 17/06Z 17/07Z 17/08Z 17/09Z 17/10Z 17/11Z 17/12Z 17/13Z 17/14Z 17/15Z>>
Type PRVL PRVL PRVL PRVL PRVL PRVL PRVL
  [PRB30]  
PRVL
  [PRB30]  
PRVL
  [PRB30]  
VIS >6 >6 >6 >6 >6 >6 >6
  [4]  
>6
  [4]  
>6
  [4]  
CIG -- -- -- -- -- -- --
  [100]  
--
  [100]  
--
  [100]  
Cover SCT SCT SCT SCT SCT SCT SCT
  [BKN]  
SCT
  [BKN]  
SCT
  [BKN]  
FltCat VFR VFR VFR VFR VFR VFR VFR
  [MVFR]  
VFR
  [MVFR]  
VFR
  [MVFR]  
WX -- -- -- -- -- -- --
  [SHRA BR]  
--
  [SHRA BR]  
--
  [SHRA BR]  
WDir 10 10 10 40 40 40 40
[40]
40
[40]
40
[40]
WSpd 4 4 4 5 5 5 5
  [5]  
5
  [5]  
5
  [5]  
WGst -- -- -- -- -- -- --
  [--]  
--
  [--]  
--
  [--]  
WSHgt -- -- -- -- -- -- --
[--]
--
[--]
--
[--]
WSDir -- -- -- -- -- -- --
[--]
--
[--]
--
[--]
WSSpd -- -- -- -- -- -- --
[--]
--
[--]
--
[--]
Raw TAF
KBHM 161205Z 1612/1712 VRB03KT 3SM BR BKN002
  TEMPO 1612/1614 1/2SM FG BKN002
  FM161400 33009KT P6SM FEW060 SCT250
  FM162100 35012KT P6SM FEW070 FEW250
  FM170100 01004KT P6SM SCT250
  FM170600 04005KT P6SM SCT100
  PROB30 1709/1712 4SM SHRA BR BKN100


METAR Board
Radar Display
Forecast Discussion
For situational awareness. Not to be used for flight planning purposes.